Time;durP1;ratioP1;P1;durP2;ratioP2;P2;SDS_P1;SDS_P2;PMS_P1;PMS_P2;Temp;Humidity;BMP_temperature;BMP_pressure;BME280_temperature;BME280_humidity;BME280_pressure;Samples;Min_cycle;Max_cycle;Signal;HPM_P1;HPM_P2
2022/07/14 00:00:39;;;;;;;;;;;;;;;17.83;65.89;100493.84;1434778;91;20810;-88
2022/07/14 00:03:05;;;;;;;;;;;;;;;17.80;67.14;100505.75;1432296;91;20337;-88
2022/07/14 00:05:35;;;;;;;;;;;;;;;17.74;65.52;100502.48;1432911;91;20801;-87
2022/07/14 00:08:02;;;;;;;;;;;;;;;17.69;66.43;100508.91;1432930;91;20263;-87
2022/07/14 00:10:29;;;;;;;;;;;;;;;17.64;66.11;100511.36;1434623;90;20384;-87
2022/07/14 00:12:55;;;;;;;;;;;;;;;17.58;66.16;100508.42;1413318;91;20293;-86
2022/07/14 00:15:21;;;;;;;;;;;;;;;17.53;66.27;100502.81;1432045;91;20399;-86
2022/07/14 00:17:47;;;;;;;;;;;;;;;17.51;65.79;100506.18;1417349;91;20838;-88
2022/07/14 00:20:13;;;;;;;;;;;;;;;17.52;65.51;100508.34;1417907;90;20279;-86
2022/07/14 00:22:40;;;;;;;;;;;;;;;17.52;65.51;100515.88;1426043;90;20330;-88
2022/07/14 00:25:07;;;;;;;;;;;;;;;17.51;66.41;100511.53;1447566;89;20398;-88
2022/07/14 00:27:34;;;;;;;;;;;;;;;17.48;66.54;100513.77;1444595;90;20352;-89
2022/07/14 00:30:00;;;;;;;;;;;;;;;17.43;66.45;100506.81;1424462;89;20318;-89
2022/07/14 00:32:26;;;;;;;;;;;;;;;17.39;65.44;100502.36;1441979;90;20316;-88
2022/07/14 00:34:52;;;;;;;;;;;;;;;17.39;65.62;100509.05;1437848;90;20299;-87
2022/07/14 00:37:18;;;;;;;;;;;;;;;17.37;65.01;100507.89;1442003;90;20279;-87
2022/07/14 00:39:56;;;;;;;;;;;;;;;17.35;65.04;100507.78;1442311;90;21047;-87
2022/07/14 00:42:35;;;;;;;;;;;;;;;17.32;65.87;100516.16;1422339;90;20277;-86
2022/07/14 00:45:04;;;;;;;;;;;;;;;17.29;66.18;100508.52;1422599;89;20436;-86
2022/07/14 00:47:30;;;;;;;;;;;;;;;17.28;64.52;100509.55;1401993;90;20876;-86
2022/07/14 00:49:57;;;;;;;;;;;;;;;17.26;64.38;100507.56;1437112;89;20944;-86
2022/07/14 00:52:24;;;;;;;;;;;;;;;17.27;63.56;100512.73;1423292;91;20281;-86
2022/07/14 00:54:50;;;;;;;;;;;;;;;17.27;62.76;100506.56;1426349;90;20387;-86
2022/07/14 00:57:19;;;;;;;;;;;;;;;17.27;63.70;100506.05;1435572;91;20309;-86
2022/07/14 00:59:45;;;;;;;;;;;;;;;17.28;64.61;100506.36;1448736;89;20780;-86
2022/07/14 01:02:12;;;;;;;;;;;;;;;17.27;64.88;100510.06;1425586;89;20313;-88
2022/07/14 01:04:38;;;;;;;;;;;;;;;17.25;64.92;100509.92;1448505;89;20317;-90
2022/07/14 01:07:04;;;;;;;;;;;;;;;17.21;64.36;100507.32;1436568;91;20313;-90
2022/07/14 01:09:32;;;;;;;;;;;;;;;17.20;64.61;100513.16;1444790;89;20287;-88
2022/07/14 01:12:09;;;;;;;;;;;;;;;17.20;63.37;100508.32;1437287;91;21011;-88
2022/07/14 01:14:36;;;;;;;;;;;;;;;17.22;62.69;100507.63;1413785;91;20413;-88
2022/07/14 01:17:03;;;;;;;;;;;;;;;17.26;64.69;100499.53;1420532;91;20915;-88
2022/07/14 01:19:29;;;;;;;;;;;;;;;17.27;65.43;100503.38;1414039;92;20309;-87
2022/07/14 01:21:56;;;;;;;;;;;;;;;17.27;65.76;100502.55;1393356;91;20876;-87
2022/07/14 01:24:23;;;;;;;;;;;;;;;17.26;66.10;100503.06;1388879;93;21011;-87
2022/07/14 01:26:49;;;;;;;;;;;;;;;17.24;65.55;100501.08;1420593;92;20302;-87
2022/07/14 01:29:15;;;;;;;;;;;;;;;17.21;66.26;100498.78;1411403;92;20303;-85
2022/07/14 01:31:42;;;;;;;;;;;;;;;17.18;67.05;100509.04;1403977;92;20840;-85
2022/07/14 01:34:08;;;;;;;;;;;;;;;17.11;66.30;100499.59;1411840;93;20342;-86
2022/07/14 01:36:34;;;;;;;;;;;;;;;17.08;65.96;100509.32;1411482;92;21596;-86
2022/07/14 01:39:00;;;;;;;;;;;;;;;17.04;65.19;100506.20;1411072;92;20282;-86
2022/07/14 01:41:28;;;;;;;;;;;;;;;17.02;64.91;100512.23;1398309;92;20385;-85
2022/07/14 01:43:54;;;;;;;;;;;;;;;17.00;65.70;100506.23;1417399;91;20782;-85
2022/07/14 01:46:21;;;;;;;;;;;;;;;16.99;67.09;100501.09;1407290;92;20290;-86
2022/07/14 01:48:48;;;;;;;;;;;;;;;16.95;67.04;100499.83;1409753;92;20320;-86
2022/07/14 01:51:15;;;;;;;;;;;;;;;16.90;67.93;100500.38;1420832;91;21001;-86
2022/07/14 01:53:44;;;;;;;;;;;;;;;16.83;67.69;100490.95;1433480;91;20406;-87
2022/07/14 01:56:11;;;;;;;;;;;;;;;16.77;68.93;100496.19;1397951;92;21320;-87
2022/07/14 01:58:37;;;;;;;;;;;;;;;16.72;68.05;100491.91;1421777;92;20417;-86
2022/07/14 02:03:50;;;;;;;;;;;;;;;16.65;68.25;100495.29;1428689;90;20277;-87
2022/07/14 02:06:16;;;;;;;;;;;;;;;16.62;68.68;100489.50;1440818;90;20291;-87
2022/07/14 02:08:42;;;;;;;;;;;;;;;16.57;67.55;100488.73;1409308;91;20346;-87
2022/07/14 02:13:52;;;;;;;;;;;;;;;16.47;67.58;100490.33;1419497;91;20664;-87
2022/07/14 02:16:18;;;;;;;;;;;;;;;16.43;68.44;100490.91;1420956;91;20325;-86
2022/07/14 02:18:44;;;;;;;;;;;;;;;16.39;68.15;100492.27;1395781;92;20320;-87
2022/07/14 02:21:10;;;;;;;;;;;;;;;16.36;68.47;100493.97;1436792;90;20929;-87
2022/07/14 02:23:36;;;;;;;;;;;;;;;16.35;69.06;100496.33;1444228;89;20952;-87
2022/07/14 02:26:02;;;;;;;;;;;;;;;16.31;68.69;100493.17;1443491;89;20262;-87
2022/07/14 02:28:28;;;;;;;;;;;;;;;16.28;69.84;100494.05;1442762;89;20310;-87
2022/07/14 02:30:54;;;;;;;;;;;;;;;16.22;69.00;100499.11;1423654;89;20353;-87
2022/07/14 02:33:20;;;;;;;;;;;;;;;16.20;69.21;100499.81;1462430;89;20428;-87
2022/07/14 02:35:46;;;;;;;;;;;;;;;16.18;70.46;100501.01;1435411;91;20353;-87
2022/07/14 02:38:12;;;;;;;;;;;;;;;16.15;69.77;100505.37;1445076;89;20421;-87
2022/07/14 02:40:38;;;;;;;;;;;;;;;16.13;69.96;100504.21;1458741;89;20359;-87
2022/07/14 02:43:04;;;;;;;;;;;;;;;16.13;70.66;100502.05;1433637;89;20283;-88
2022/07/14 02:45:30;;;;;;;;;;;;;;;16.14;70.28;100502.37;1457684;89;20831;-87
2022/07/14 02:47:56;;;;;;;;;;;;;;;16.14;69.76;100502.37;1440284;90;20294;-87
2022/07/14 02:50:22;;;;;;;;;;;;;;;16.15;70.26;100497.37;1411225;89;20307;-87
2022/07/14 02:52:48;;;;;;;;;;;;;;;16.16;70.05;100499.84;1434644;90;20228;-87
2022/07/14 02:55:14;;;;;;;;;;;;;;;16.15;69.99;100500.86;1426528;91;20486;-87
2022/07/14 02:57:39;;;;;;;;;;;;;;;16.14;69.91;100495.69;1403410;91;20332;-87
2022/07/14 03:00:07;;;;;;;;;;;;;;;16.14;70.44;100506.38;1416239;91;20824;-87
2022/07/14 03:02:33;;;;;;;;;;;;;;;16.13;70.90;100508.22;1453784;89;20426;-88
2022/07/14 03:04:59;;;;;;;;;;;;;;;16.16;69.68;100507.03;1425759;90;20333;-88
2022/07/14 03:07:25;;;;;;;;;;;;;;;16.19;70.55;100507.48;1421598;89;20428;-87
2022/07/14 03:09:50;;;;;;;;;;;;;;;16.20;70.61;100509.16;1410369;91;20822;-87
2022/07/14 03:12:17;;;;;;;;;;;;;;;16.20;69.79;100513.17;1420878;90;20279;-87
2022/07/14 03:14:43;;;;;;;;;;;;;;;16.23;70.54;100514.14;1419052;91;20414;-87
2022/07/14 03:17:09;;;;;;;;;;;;;;;16.27;70.43;100517.77;1436865;89;21160;-87
2022/07/14 03:19:35;;;;;;;;;;;;;;;16.30;71.71;100525.42;1465787;89;20299;-87
2022/07/14 03:22:02;;;;;;;;;;;;;;;16.31;71.67;100520.39;1431466;90;20229;-87
2022/07/14 03:24:28;;;;;;;;;;;;;;;16.35;71.12;100516.36;1459495;89;20403;-86
2022/07/14 03:26:54;;;;;;;;;;;;;;;16.40;71.40;100521.96;1429734;89;20794;-87
2022/07/14 03:29:22;;;;;;;;;;;;;;;16.44;71.28;100524.09;1444145;90;20305;-87
2022/07/14 03:31:48;;;;;;;;;;;;;;;16.52;70.88;100525.86;1424835;89;20424;-88
2022/07/14 03:34:14;;;;;;;;;;;;;;;16.59;71.39;100524.61;1452353;89;20280;-88
2022/07/14 03:36:40;;;;;;;;;;;;;;;16.63;72.75;100525.40;1455826;89;20313;-88
2022/07/14 03:39:06;;;;;;;;;;;;;;;16.63;71.57;100529.41;1421353;89;20361;-88
2022/07/14 03:41:32;;;;;;;;;;;;;;;16.65;70.68;100531.36;1443820;89;20307;-88
2022/07/14 03:43:58;;;;;;;;;;;;;;;16.64;70.36;100536.39;1431989;90;20309;-88
2022/07/14 03:46:24;;;;;;;;;;;;;;;16.68;71.09;100536.85;1432951;89;20791;-88
2022/07/14 03:48:51;;;;;;;;;;;;;;;16.73;70.91;100532.30;1419847;90;20494;-87
2022/07/14 03:51:17;;;;;;;;;;;;;;;16.78;70.32;100530.77;1439269;88;20284;-87
2022/07/14 03:53:43;;;;;;;;;;;;;;;16.84;71.84;100535.87;1456791;89;21629;-87
2022/07/14 03:56:09;;;;;;;;;;;;;;;16.87;71.53;100529.64;1458699;88;20308;-89
2022/07/14 03:58:34;;;;;;;;;;;;;;;16.89;70.61;100536.98;1458929;89;20417;-87
2022/07/14 04:01:02;;;;;;;;;;;;;;;16.92;71.04;100534.44;1447173;89;20290;-88
2022/07/14 04:03:28;;;;;;;;;;;;;;;17.00;70.36;100545.00;1448800;89;20294;-88
2022/07/14 04:05:54;;;;;;;;;;;;;;;17.08;70.66;100540.07;1438767;90;20235;-88
2022/07/14 04:08:20;;;;;;;;;;;;;;;17.14;71.59;100543.33;1452816;89;20374;-89
2022/07/14 04:10:46;;;;;;;;;;;;;;;17.20;70.79;100547.10;1445927;88;20308;-89
2022/07/14 04:13:12;;;;;;;;;;;;;;;17.31;71.30;100553.30;1453232;89;20872;-90
2022/07/14 04:15:38;;;;;;;;;;;;;;;17.39;71.63;100552.37;1419766;89;20290;-88
2022/07/14 04:18:04;;;;;;;;;;;;;;;17.48;70.85;100552.56;1461185;88;20338;-87
2022/07/14 04:20:30;;;;;;;;;;;;;;;17.56;71.29;100553.27;1455073;89;20803;-87
2022/07/14 04:22:56;;;;;;;;;;;;;;;17.66;70.28;100556.14;1437168;88;20371;-87
2022/07/14 04:25:22;;;;;;;;;;;;;;;17.76;70.51;100561.50;1430509;89;20292;-88
2022/07/14 04:27:48;;;;;;;;;;;;;;;17.86;70.58;100554.50;1447874;90;20376;-88
2022/07/14 04:30:14;;;;;;;;;;;;;;;17.97;70.13;100560.69;1450433;90;20464;-88
2022/07/14 04:32:40;;;;;;;;;;;;;;;18.09;70.73;100566.34;1407845;90;20860;-88
2022/07/14 04:35:07;;;;;;;;;;;;;;;18.17;70.02;100562.70;1420806;89;20375;-87
2022/07/14 04:37:34;;;;;;;;;;;;;;;18.27;70.80;100564.55;1472685;88;20282;-87
2022/07/14 04:40:00;;;;;;;;;;;;;;;18.36;70.51;100566.57;1479519;86;20357;-87
2022/07/14 04:42:26;;;;;;;;;;;;;;;18.46;70.28;100569.72;1494058;86;20376;-88
2022/07/14 04:44:52;;;;;;;;;;;;;;;18.54;69.91;100572.25;1492735;86;20283;-88
2022/07/14 04:47:18;;;;;;;;;;;;;;;18.64;68.95;100574.57;1472260;86;20921;-89
2022/07/14 04:52:13;;;;;;;;;;;;;;;18.80;66.47;100563.57;1455818;88;20267;-90
2022/07/14 04:54:38;;;;;;;;;;;;;;;18.90;65.88;100558.69;1441455;88;20387;-88
2022/07/14 04:57:04;;;;;;;;;;;;;;;19.02;65.68;100562.11;1475127;86;20320;-88
2022/07/14 04:59:31;;;;;;;;;;;;;;;19.11;65.41;100564.97;1495810;86;20380;-88
2022/07/14 05:01:57;;;;;;;;;;;;;;;19.21;65.88;100565.40;1490602;86;20963;-90
2022/07/14 05:04:23;;;;;;;;;;;;;;;19.31;64.62;100561.02;1493500;86;20381;-89
2022/07/14 05:06:49;;;;;;;;;;;;;;;19.38;63.02;100561.33;1476219;86;20294;-88
2022/07/14 05:09:18;;;;;;;;;;;;;;;19.46;61.56;100563.01;1480344;86;21111;-88
2022/07/14 05:11:45;;;;;;;;;;;;;;;19.56;60.88;100562.12;1509449;86;20346;-88
2022/07/14 05:14:11;;;;;;;;;;;;;;;19.66;60.26;100564.43;1492058;86;20333;-90
2022/07/14 05:16:38;;;;;;;;;;;;;;;19.75;59.74;100563.20;1470255;87;20247;-89
2022/07/14 05:19:05;;;;;;;;;;;;;;;19.84;58.68;100568.67;1470416;86;20896;-90
2022/07/14 05:21:31;;;;;;;;;;;;;;;19.95;57.89;100573.14;1501809;86;20320;-90
2022/07/14 05:23:57;;;;;;;;;;;;;;;20.02;54.92;100582.87;1447402;88;20334;-90
2022/07/14 05:26:24;;;;;;;;;;;;;;;20.10;56.89;100588.53;1469579;86;20863;-91
2022/07/14 05:28:50;;;;;;;;;;;;;;;20.15;55.18;100586.06;1466640;86;20372;-88
2022/07/14 05:31:16;;;;;;;;;;;;;;;20.19;54.70;100575.20;1452336;88;20335;-88
2022/07/14 05:33:41;;;;;;;;;;;;;;;20.24;55.25;100567.88;1448107;88;20291;-88
2022/07/14 05:36:08;;;;;;;;;;;;;;;20.31;54.13;100573.23;1477514;86;20810;-89
2022/07/14 05:38:34;;;;;;;;;;;;;;;20.34;52.45;100576.36;1478909;86;20290;-88
2022/07/14 05:41:01;;;;;;;;;;;;;;;20.40;52.29;100575.52;1462026;89;20311;-89
2022/07/14 05:43:28;;;;;;;;;;;;;;;20.46;52.25;100571.99;1500735;86;21030;-93
2022/07/14 05:45:54;;;;;;;;;;;;;;;20.54;51.83;100574.98;1458734;86;20288;-92
2022/07/14 05:48:20;;;;;;;;;;;;;;;20.62;51.19;100568.05;1489983;86;20382;-92
2022/07/14 05:50:46;;;;;;;;;;;;;;;20.73;51.93;100572.78;1471402;88;20825;-93
2022/07/14 05:53:11;;;;;;;;;;;;;;;20.85;51.62;100560.85;1461668;86;20273;-93
2022/07/14 05:55:37;;;;;;;;;;;;;;;20.94;51.06;100555.57;1457461;86;20317;-92
2022/07/14 05:58:03;;;;;;;;;;;;;;;21.03;49.59;100547.23;1485552;86;20282;-92
2022/07/14 06:00:29;;;;;;;;;;;;;;;21.12;49.50;100552.18;1438383;88;20982;-91
2022/07/14 06:02:55;;;;;;;;;;;;;;;21.26;49.73;100554.79;1484615;86;20296;-92
2022/07/14 06:05:21;;;;;;;;;;;;;;;21.41;49.41;100552.69;1476303;86;20329;-92
2022/07/14 06:07:47;;;;;;;;;;;;;;;21.56;49.21;100558.59;1465373;86;20295;-92
2022/07/14 06:10:13;;;;;;;;;;;;;;;21.66;48.25;100558.11;1477831;86;21032;-92
2022/07/14 06:12:40;;;;;;;;;;;;;;;21.76;48.24;100561.16;1485243;86;20304;-92
2022/07/14 06:15:10;;;;;;;;;;;;;;;21.83;47.83;100564.62;1468334;86;20461;-94
2022/07/14 06:17:36;;;;;;;;;;;;;;;21.88;47.59;100563.97;1449612;89;20298;-92
2022/07/14 06:20:06;;;;;;;;;;;;;;;21.93;47.53;100564.15;1453850;86;20353;-91
2022/07/14 06:22:30;;;;;;;;;;;;;;;21.96;47.06;100558.84;1474863;86;20327;-90
2022/07/14 06:24:56;;;;;;;;;;;;;;;21.96;46.31;100561.55;1444211;90;20293;-91
2022/07/14 06:27:21;;;;;;;;;;;;;;;21.99;46.29;100560.58;1426330;90;20822;-92
2022/07/14 06:29:49;;;;;;;;;;;;;;;22.00;46.04;100556.83;1443920;90;20785;-91
2022/07/14 06:32:15;;;;;;;;;;;;;;;22.02;45.31;100550.70;1420304;90;21190;-91
2022/07/14 06:34:41;;;;;;;;;;;;;;;22.06;46.17;100547.86;1444326;89;20307;-90
2022/07/14 06:37:07;;;;;;;;;;;;;;;22.08;45.82;100548.47;1430535;90;20265;-93
2022/07/14 06:39:36;;;;;;;;;;;;;;;22.22;45.08;100544.35;1448153;90;20939;-92
2022/07/14 06:42:03;;;;;;;;;;;;;;;22.32;45.60;100533.88;1421066;91;20402;-92
2022/07/14 06:44:30;;;;;;;;;;;;;;;22.39;44.55;100527.91;1433977;90;20322;-93
2022/07/14 06:46:56;;;;;;;;;;;;;;;22.59;45.43;100531.74;1448447;90;20376;-91
2022/07/14 06:49:22;;;;;;;;;;;;;;;22.80;45.36;100529.64;1446076;90;20370;-92
2022/07/14 06:51:48;;;;;;;;;;;;;;;22.99;44.24;100527.27;1436594;90;20293;-93
2022/07/14 06:54:15;;;;;;;;;;;;;;;23.13;44.00;100526.05;1459061;89;20383;-93
2022/07/14 06:56:42;;;;;;;;;;;;;;;23.28;44.07;100522.93;1435450;90;20315;-92
2022/07/14 06:59:08;;;;;;;;;;;;;;;23.41;43.00;100517.32;1440317;90;20292;-92
2022/07/14 07:01:34;;;;;;;;;;;;;;;23.59;43.00;100523.70;1437493;90;20270;-92
2022/07/14 07:04:00;;;;;;;;;;;;;;;23.78;41.48;100523.97;1453082;90;20276;-93
2022/07/14 07:06:44;;;;;;;;;;;;;;;23.97;42.36;100522.01;1447966;90;20784;-91
2022/07/14 07:09:15;;;;;;;;;;;;;;;24.19;42.16;100524.13;1438971;90;20241;-91
2022/07/14 07:11:43;;;;;;;;;;;;;;;24.44;39.55;100527.97;1408638;90;20249;-93
2022/07/14 07:14:09;;;;;;;;;;;;;;;24.65;39.14;100522.47;1421674;91;20287;-94
2022/07/14 07:16:35;;;;;;;;;;;;;;;24.87;38.95;100528.07;1449671;90;20227;-92
2022/07/14 07:19:01;;;;;;;;;;;;;;;25.03;38.52;100526.47;1444430;90;20263;-92
2022/07/14 07:21:27;;;;;;;;;;;;;;;25.19;37.70;100531.98;1450498;90;20316;-92
2022/07/14 07:23:54;;;;;;;;;;;;;;;25.38;37.59;100531.80;1457721;87;20274;-90
2022/07/14 07:26:24;;;;;;;;;;;;;;;25.57;36.52;100536.45;1472558;86;20358;-93
2022/07/14 07:28:52;;;;;;;;;;;;;;;25.71;34.32;100536.97;1494232;86;20563;-91
2022/07/14 07:31:19;;;;;;;;;;;;;;;25.87;35.96;100524.00;1471587;86;20328;-88
2022/07/14 07:33:45;;;;;;;;;;;;;;;26.04;35.51;100528.07;1435443;89;20931;-88
2022/07/14 07:36:17;;;;;;;;;;;;;;;26.19;34.61;100522.87;1471414;86;21558;-90
2022/07/14 07:38:44;;;;;;;;;;;;;;;26.32;34.02;100527.11;1461944;87;20396;-91
2022/07/14 07:41:12;;;;;;;;;;;;;;;26.48;33.57;100520.83;1457822;88;20836;-93
2022/07/14 07:43:39;;;;;;;;;;;;;;;26.64;33.48;100519.70;1461388;88;20441;-92
2022/07/14 07:46:05;;;;;;;;;;;;;;;26.76;33.01;100517.16;1449948;87;20938;-92
2022/07/14 07:48:32;;;;;;;;;;;;;;;26.91;33.73;100511.09;1482867;86;20281;-95
2022/07/14 07:50:58;;;;;;;;;;;;;;;27.02;32.94;100503.89;1480954;86;20297;-92
2022/07/14 07:53:25;;;;;;;;;;;;;;;27.17;33.36;100508.69;1467845;86;20285;-92
2022/07/14 07:55:51;;;;;;;;;;;;;;;27.32;33.74;100507.47;1460815;89;20284;-90
2022/07/14 07:58:19;;;;;;;;;;;;;;;27.47;33.27;100497.83;1459420;87;21156;-91
2022/07/14 08:00:45;;;;;;;;;;;;;;;27.61;33.17;100500.40;1439586;89;21093;-91
2022/07/14 08:03:14;;;;;;;;;;;;;;;27.71;32.22;100501.86;1467388;86;20782;-93
2022/07/14 08:05:44;;;;;;;;;;;;;;;27.80;32.32;100498.97;1443572;86;20349;-91
2022/07/14 08:08:11;;;;;;;;;;;;;;;27.81;31.50;100499.78;1488038;86;20841;-92
2022/07/14 08:10:38;;;;;;;;;;;;;;;27.88;31.67;100494.95;1469856;87;20873;-90
2022/07/14 08:13:04;;;;;;;;;;;;;;;27.98;31.79;100494.20;1459575;89;20345;-91
2022/07/14 08:15:31;;;;;;;;;;;;;;;28.05;32.01;100492.05;1495544;86;20898;-82
2022/07/14 08:17:57;;;;;;;;;;;;;;;28.10;31.67;100479.85;1487890;86;20423;-82
2022/07/14 08:20:23;;;;;;;;;;;;;;;28.15;31.77;100478.53;1431481;89;20292;-82
2022/07/14 08:22:52;;;;;;;;;;;;;;;28.29;31.40;100481.05;1463485;86;20849;-82
2022/07/14 08:25:18;;;;;;;;;;;;;;;28.36;31.45;100484.89;1493892;86;20376;-82
2022/07/14 08:27:44;;;;;;;;;;;;;;;28.46;31.85;100484.98;1477394;86;20373;-81
2022/07/14 08:30:11;;;;;;;;;;;;;;;28.48;30.34;100492.88;1498124;86;20406;-82
2022/07/14 08:32:47;;;;;;;;;;;;;;;28.50;30.57;100485.27;1440914;87;20318;-81
2022/07/14 08:35:17;;;;;;;;;;;;;;;28.55;30.36;100494.28;1466768;86;20923;-83
2022/07/14 08:37:43;;;;;;;;;;;;;;;28.66;30.87;100488.89;1457657;86;20458;-79
2022/07/14 08:40:16;;;;;;;;;;;;;;;28.81;30.34;100484.04;1559068;86;20351;-82
2022/07/14 08:42:42;;;;;;;;;;;;;;;29.01;30.11;100484.09;1538401;86;20295;-82
2022/07/14 08:45:15;;;;;;;;;;;;;;;29.23;30.07;100477.91;1457254;86;20321;-82
2022/07/14 08:47:42;;;;;;;;;;;;;;;29.44;30.29;100472.47;1552833;86;20761;-83
2022/07/14 08:50:16;;;;;;;;;;;;;;;29.69;29.39;100471.66;1561152;86;20314;-83
2022/07/14 08:52:43;;;;;;;;;;;;;;;29.73;29.38;100470.59;1530446;86;20790;-83
2022/07/14 08:55:11;;;;;;;;;;;;;;;29.68;29.97;100465.39;1538408;87;20336;-83
2022/07/14 08:57:40;;;;;;;;;;;;;;;29.70;29.15;100469.22;1429505;88;20262;-84
2022/07/14 09:00:11;;;;;;;;;;;;;;;29.79;29.10;100463.48;1559895;86;20787;-81
2022/07/14 09:02:39;;;;;;;;;;;;;;;29.90;28.43;100457.47;1418996;88;20853;-81
2022/07/14 09:05:06;;;;;;;;;;;;;;;29.93;27.53;100457.47;1528714;86;20236;-82
2022/07/14 09:07:37;;;;;;;;;;;;;;;30.04;28.65;100451.71;1555746;86;20292;-87
2022/07/14 09:10:10;;;;;;;;;;;;;;;30.14;28.39;100454.95;1437651;89;20336;-89
2022/07/14 09:12:37;;;;;;;;;;;;;;;30.30;28.36;100427.10;1565308;86;20363;-88
2022/07/14 09:17:55;;;;;;;;;;;;;;;30.42;27.83;100432.23;1513712;86;20243;-89
2022/07/14 09:20:23;;;;;;;;;;;;;;;30.61;26.84;100437.31;1395728;89;20289;-89
2022/07/14 09:22:51;;;;;;;;;;;;;;;30.80;27.51;100436.16;1546972;86;20243;-89
2022/07/14 09:25:18;;;;;;;;;;;;;;;30.97;27.54;100436.59;1496267;86;21451;-88
2022/07/14 09:27:45;;;;;;;;;;;;;;;30.95;26.10;100436.61;1481904;86;20386;-89
2022/07/14 09:30:13;;;;;;;;;;;;;;;30.98;27.19;100434.13;1467287;86;20801;-88
2022/07/14 09:32:55;;;;;;;;;;;;;;;31.10;27.32;100430.22;1502942;86;21200;-90
2022/07/14 09:35:25;;;;;;;;;;;;;;;31.19;26.55;100432.64;1462446;86;21718;-90
2022/07/14 09:37:56;;;;;;;;;;;;;;;31.36;26.76;100426.23;1481618;86;20358;-88
2022/07/14 09:40:30;;;;;;;;;;;;;;;31.43;25.84;100430.81;1485099;86;20399;-89
2022/07/14 09:42:58;;;;;;;;;;;;;;;31.33;25.82;100424.02;1441395;89;20372;-88
2022/07/14 09:45:30;;;;;;;;;;;;;;;31.39;24.53;100416.09;1493414;86;20273;-88
2022/07/14 09:48:08;;;;;;;;;;;;;;;31.44;24.28;100416.02;1449121;89;20864;-88
2022/07/14 09:50:43;;;;;;;;;;;;;;;31.54;24.94;100427.44;1481509;86;20369;-88
2022/07/14 09:53:17;;;;;;;;;;;;;;;31.32;24.05;100426.50;1460980;87;21375;-90
2022/07/14 09:55:59;;;;;;;;;;;;;;;31.29;23.31;100423.52;1495684;86;20347;-90
2022/07/14 09:58:28;;;;;;;;;;;;;;;31.37;24.91;100411.45;1443207;89;20297;-89
2022/07/14 10:00:57;;;;;;;;;;;;;;;31.48;25.09;100416.29;1557487;86;20259;-89
2022/07/14 10:03:25;;;;;;;;;;;;;;;31.50;24.01;100421.45;1395221;86;20262;-82
2022/07/14 10:05:53;;;;;;;;;;;;;;;31.63;25.13;100418.06;1428951;87;20524;-83
2022/07/14 10:08:21;;;;;;;;;;;;;;;31.71;24.78;100414.70;1493766;86;20287;-82
2022/07/14 10:10:47;;;;;;;;;;;;;;;31.72;24.37;100415.52;1483978;87;20320;-82
2022/07/14 10:13:15;;;;;;;;;;;;;;;31.83;24.35;100410.20;1443963;89;20268;-83
2022/07/14 10:15:41;;;;;;;;;;;;;;;31.94;24.89;100413.13;1447425;86;20270;-83
2022/07/14 10:18:07;;;;;;;;;;;;;;;32.08;24.69;100409.11;1467786;88;20424;-83
2022/07/14 10:20:34;;;;;;;;;;;;;;;32.30;24.84;100402.55;1479183;86;20409;-82
2022/07/14 10:23:02;;;;;;;;;;;;;;;32.54;25.58;100392.13;1484177;86;20336;-82
2022/07/14 10:25:28;;;;;;;;;;;;;;;32.67;24.31;100400.98;1444996;86;21183;-90
2022/07/14 10:27:55;;;;;;;;;;;;;;;32.72;24.23;100386.41;1453149;90;20322;-90
2022/07/14 10:30:33;;;;;;;;;;;;;;;33.03;24.91;100382.65;1432775;90;20285;-91
2022/07/14 10:33:09;;;;;;;;;;;;;;;33.30;24.27;100383.31;1447204;90;20845;-90
2022/07/14 10:36:00;;;;;;;;;;;;;;;33.46;23.38;100386.59;1439957;90;20892;-89
2022/07/14 10:38:53;;;;;;;;;;;;;;;33.60;22.37;100395.69;1450828;88;20276;-90
2022/07/14 10:41:28;;;;;;;;;;;;;;;33.70;22.34;100385.91;1462311;88;20330;-91
2022/07/14 10:44:07;;;;;;;;;;;;;;;33.83;23.27;100377.41;1415430;89;21431;-91
2022/07/14 10:46:39;;;;;;;;;;;;;;;33.74;21.82;100378.44;1448243;90;20285;-91
2022/07/14 10:49:06;;;;;;;;;;;;;;;33.85;22.97;100371.63;1446798;90;20308;-92
2022/07/14 10:51:34;;;;;;;;;;;;;;;33.92;22.11;100378.35;1422782;90;20300;-88
2022/07/14 10:54:15;;;;;;;;;;;;;;;33.97;21.82;100369.18;1449215;90;20271;-91
2022/07/14 10:56:41;;;;;;;;;;;;;;;34.10;22.50;100363.48;1454698;90;20367;-90
2022/07/14 10:59:29;;;;;;;;;;;;;;;34.18;22.06;100352.31;1454656;90;20331;-90
2022/07/14 11:02:18;;;;;;;;;;;;;;;34.18;22.73;100349.56;1455835;90;20308;-89
2022/07/14 11:05:02;;;;;;;;;;;;;;;34.37;22.04;100350.24;1452367;90;20329;-91
2022/07/14 11:07:55;;;;;;;;;;;;;;;34.52;21.95;100350.45;1372439;94;20338;-90
2022/07/14 11:10:24;;;;;;;;;;;;;;;34.61;22.10;100348.62;1374334;95;20373;-89
2022/07/14 11:13:06;;;;;;;;;;;;;;;34.18;21.89;100345.44;1377539;95;20397;-89
2022/07/14 11:15:44;;;;;;;;;;;;;;;33.87;21.59;100350.19;1375321;95;20302;-89
2022/07/14 11:18:33;;;;;;;;;;;;;;;33.90;22.43;100348.20;1371630;95;20362;-91
2022/07/14 11:21:13;;;;;;;;;;;;;;;34.05;22.00;100335.55;1374564;95;20435;-89
2022/07/14 11:23:52;;;;;;;;;;;;;;;33.95;22.13;100338.47;1382574;95;20354;-90
2022/07/14 11:26:37;;;;;;;;;;;;;;;34.02;22.65;100323.78;1383175;92;20314;-90
2022/07/14 11:29:05;;;;;;;;;;;;;;;33.93;22.19;100318.77;1381574;94;20914;-90
2022/07/14 11:31:43;;;;;;;;;;;;;;;33.69;21.61;100337.64;1376591;95;20428;-89
2022/07/14 11:37:08;;;;;;;;;;;;;;;33.48;23.02;100328.13;1376286;95;20756;-90
2022/07/14 11:39:35;;;;;;;;;;;;;;;33.45;23.38;100319.13;1378169;95;20370;-89
2022/07/14 11:42:07;;;;;;;;;;;;;;;33.35;21.96;100327.01;1372008;95;20406;-89
2022/07/14 11:44:40;;;;;;;;;;;;;;;33.41;22.63;100326.36;1391018;91;20926;-89
2022/07/14 11:47:34;;;;;;;;;;;;;;;33.28;21.99;100327.14;1433928;91;20385;-89
2022/07/14 11:50:07;;;;;;;;;;;;;;;33.44;21.53;100327.12;1441360;91;20288;-89
2022/07/14 11:52:35;;;;;;;;;;;;;;;33.47;21.64;100319.66;1439466;91;20378;-90
2022/07/14 11:55:04;;;;;;;;;;;;;;;33.29;21.53;100314.51;1428905;91;20355;-83
2022/07/14 11:57:30;;;;;;;;;;;;;;;33.14;22.09;100314.20;1435802;88;20317;-89
2022/07/14 12:00:08;;;;;;;;;;;;;;;33.38;22.37;100322.84;1443090;90;20918;-89
2022/07/14 12:02:52;;;;;;;;;;;;;;;33.57;21.58;100320.84;1440038;90;20460;-89
2022/07/14 12:05:21;;;;;;;;;;;;;;;33.81;22.14;100330.27;1416182;90;20324;-89
2022/07/14 12:07:50;;;;;;;;;;;;;;;33.84;21.33;100316.50;1439758;90;20443;-89
2022/07/14 12:10:18;;;;;;;;;;;;;;;33.76;22.29;100321.32;1495826;89;20287;-91
2022/07/14 12:12:47;;;;;;;;;;;;;;;33.64;21.91;100324.02;1416628;90;20316;-92
2022/07/14 12:15:24;;;;;;;;;;;;;;;33.91;22.01;100305.34;1441801;89;20443;-94
2022/07/14 12:17:53;;;;;;;;;;;;;;;34.02;21.44;100311.43;1436029;90;21454;-88
2022/07/14 12:20:21;;;;;;;;;;;;;;;34.02;21.35;100310.06;1439184;90;20286;-90
2022/07/14 12:22:55;;;;;;;;;;;;;;;33.89;21.07;100306.75;1501329;90;20362;-90
2022/07/14 12:25:27;;;;;;;;;;;;;;;33.74;21.27;100310.63;1528323;88;20265;-92
2022/07/14 12:27:55;;;;;;;;;;;;;;;33.50;21.70;100306.70;1569253;88;20310;-91
2022/07/14 12:30:23;;;;;;;;;;;;;;;33.54;22.37;100313.78;1545869;88;20801;-92
2022/07/14 12:32:54;;;;;;;;;;;;;;;33.63;22.45;100301.78;1546413;88;20764;-91
2022/07/14 12:35:23;;;;;;;;;;;;;;;33.60;22.88;100295.54;1508149;89;20257;-90
2022/07/14 12:37:53;;;;;;;;;;;;;;;33.84;23.46;100282.19;1569612;87;20265;-92
2022/07/14 12:40:19;;;;;;;;;;;;;;;34.20;23.25;100285.55;1543649;88;20942;-90
2022/07/14 12:42:45;;;;;;;;;;;;;;;34.45;21.85;100280.03;1527514;88;20443;-91
2022/07/14 12:45:15;;;;;;;;;;;;;;;34.54;21.61;100281.70;1481758;87;20963;-92
2022/07/14 12:47:55;;;;;;;;;;;;;;;34.74;21.82;100271.37;1464184;88;20523;-91
2022/07/14 12:50:23;;;;;;;;;;;;;;;34.97;21.59;100268.84;1569565;88;20368;-91
2022/07/14 12:52:52;;;;;;;;;;;;;;;35.34;21.62;100266.79;1540550;88;20338;-91
2022/07/14 12:55:32;;;;;;;;;;;;;;;35.56;21.27;100263.73;1570560;87;20257;-92